createdAt,value
2019-03-21T00:00:51.292Z,11.43
2019-03-21T00:03:22.397Z,17.47
2019-03-21T00:05:53.163Z,12.07
2019-03-21T00:08:23.969Z,12.47
2019-03-21T00:11:29.882Z,9.53
2019-03-21T00:14:07.251Z,11.37
2019-03-21T00:16:36.394Z,9.90
2019-03-21T00:19:07.155Z,10.30
2019-03-21T00:21:37.920Z,8.53
2019-03-21T00:24:26.814Z,11.33
2019-03-21T00:26:57.638Z,9.77
2019-03-21T00:29:28.729Z,11.37
2019-03-21T00:31:59.585Z,12.57
2019-03-21T00:34:30.466Z,9.47
2019-03-21T00:37:01.220Z,11.90
2019-03-21T00:39:33.130Z,10.13
2019-03-21T00:42:04.109Z,9.53
2019-03-21T00:44:34.901Z,13.40
2019-03-21T00:47:05.682Z,12.17
2019-03-21T00:49:36.466Z,13.03
2019-03-21T00:52:07.242Z,10.87
2019-03-21T00:54:38.321Z,10.43
2019-03-21T00:57:09.327Z,14.90
2019-03-21T00:59:40.203Z,11.33
2019-03-21T01:02:11.036Z,8.37
2019-03-21T01:04:41.874Z,10.43
2019-03-21T01:07:12.696Z,11.60
2019-03-21T01:09:43.455Z,9.07
2019-03-21T01:12:14.410Z,12.43
2019-03-21T01:14:45.466Z,13.47
2019-03-21T01:17:16.437Z,12.10
2019-03-21T01:19:47.213Z,14.93
2019-03-21T01:22:17.984Z,11.43
2019-03-21T01:24:48.764Z,11.27
2019-03-21T01:27:19.525Z,11.90
2019-03-21T01:29:50.274Z,11.47
2019-03-21T01:32:21.128Z,16.70
2019-03-21T01:34:51.930Z,11.63
2019-03-21T01:37:22.778Z,11.43
2019-03-21T01:39:53.540Z,17.10
2019-03-21T01:42:24.409Z,11.93
2019-03-21T01:44:55.210Z,11.67
2019-03-21T01:47:26.064Z,11.20
2019-03-21T01:49:56.897Z,11.00
2019-03-21T01:52:27.730Z,15.10
2019-03-21T01:54:58.583Z,12.00
2019-03-21T01:57:29.331Z,10.47
2019-03-21T02:00:00.161Z,10.63
2019-03-21T02:02:31.528Z,15.10
2019-03-21T02:05:02.398Z,11.10
2019-03-21T02:07:33.382Z,11.53
2019-03-21T05:00:44.784Z,10.77
2019-03-21T05:03:15.707Z,10.73
2019-03-21T05:05:46.591Z,11.70
2019-03-21T05:08:17.448Z,15.20
2019-03-21T05:10:48.194Z,19.23
2019-03-21T05:13:19.055Z,13.60
2019-03-21T05:15:49.859Z,17.13
2019-03-21T05:18:24.112Z,14.47
2019-03-21T05:20:54.886Z,15.90
2019-03-21T05:23:25.797Z,12.87
2019-03-21T05:25:56.535Z,12.67
2019-03-21T05:28:27.368Z,12.20
2019-03-21T05:31:01.474Z,26.60
2019-03-21T05:33:32.282Z,14.13
2019-03-21T05:36:03.111Z,14.73
2019-03-21T05:38:34.080Z,16.40
2019-03-21T05:41:04.927Z,14.17
2019-03-21T05:43:39.772Z,21.10
2019-03-21T05:46:10.659Z,11.20
2019-03-21T05:48:41.538Z,11.20
2019-03-21T05:51:12.326Z,15.47
2019-03-21T05:53:43.242Z,16.67
2019-03-21T05:56:14.138Z,16.60
2019-03-21T05:58:44.898Z,16.73
2019-03-21T06:01:15.702Z,20.80
2019-03-21T06:03:49.936Z,18.23
2019-03-21T06:06:37.385Z,15.80
2019-03-21T06:09:09.806Z,14.50
2019-03-21T06:11:42.149Z,15.70
2019-03-21T06:14:12.958Z,13.07
2019-03-21T06:16:43.937Z,12.87
2019-03-21T06:19:41.711Z,14.33
2019-03-21T06:22:43.703Z,13.20
2019-03-21T06:25:37.756Z,12.37
2019-03-21T06:28:08.812Z,15.73
2019-03-21T06:30:39.635Z,10.63
2019-03-21T06:33:10.543Z,11.80
2019-03-21T06:35:41.335Z,13.23
2019-03-21T06:38:12.118Z,10.77
2019-03-21T06:40:43.032Z,12.57
2019-03-21T06:43:13.980Z,14.93
2019-03-21T06:45:48.225Z,14.10
2019-03-21T06:48:17.426Z,13.10
2019-03-21T06:50:48.234Z,20.80
2019-03-21T06:53:19.202Z,15.37
2019-03-21T06:55:50.042Z,12.27
2019-03-21T06:58:20.858Z,17.23
2019-03-21T07:00:51.692Z,13.93
2019-03-21T07:03:22.490Z,15.70
2019-03-21T07:05:53.323Z,11.90
2019-03-21T07:08:24.407Z,14.40
2019-03-21T07:10:58.218Z,15.13
2019-03-21T07:13:28.169Z,14.50
2019-03-21T07:15:59.012Z,12.33
2019-03-21T07:18:29.884Z,12.17
2019-03-21T07:21:01.343Z,10.10
2019-03-21T07:23:32.561Z,11.90
2019-03-21T07:26:03.579Z,9.30
2019-03-21T07:28:34.475Z,11.27
2019-03-21T07:31:07.359Z,10.13
2019-03-21T07:33:38.122Z,10.50
2019-03-21T07:36:09.078Z,9.50
2019-03-21T07:38:39.899Z,17.13
2019-03-21T07:41:10.694Z,15.70
2019-03-21T07:43:41.463Z,13.90
2019-03-21T07:46:12.236Z,13.40
2019-03-21T07:48:43.269Z,14.87
2019-03-21T07:51:14.141Z,11.57
2019-03-21T07:53:44.943Z,14.33
2019-03-21T07:56:15.930Z,18.00
2019-03-21T07:58:46.831Z,11.03
2019-03-21T08:01:17.748Z,9.37
2019-03-21T08:03:48.593Z,15.83
2019-03-21T08:06:19.393Z,12.47
2019-03-21T08:08:50.168Z,15.30
2019-03-21T08:11:20.938Z,17.63
2019-03-21T08:13:51.855Z,12.30
2019-03-21T08:16:22.743Z,11.77
2019-03-21T08:18:53.874Z,11.97
2019-03-21T08:21:24.673Z,10.13
2019-03-21T08:23:55.453Z,12.53
2019-03-21T08:26:26.242Z,13.13
2019-03-21T08:28:57.130Z,19.83
2019-03-21T08:31:28.036Z,17.63
2019-03-21T08:33:58.834Z,11.97
2019-03-21T08:36:29.662Z,13.37
2019-03-21T08:39:00.512Z,13.70
2019-03-21T08:41:31.336Z,15.67
2019-03-21T08:44:02.155Z,10.77
2019-03-21T08:46:33.098Z,13.17
2019-03-21T08:49:03.955Z,13.00
2019-03-21T08:51:34.874Z,13.77
2019-03-21T08:54:05.878Z,12.47
2019-03-21T08:56:36.884Z,12.20
2019-03-21T08:59:07.885Z,14.47
2019-03-21T09:01:38.687Z,12.37
2019-03-21T09:04:09.601Z,12.33
2019-03-21T09:06:43.627Z,13.37
2019-03-21T09:09:14.378Z,12.67
2019-03-21T09:11:45.191Z,12.50
2019-03-21T09:14:15.956Z,11.03
2019-03-21T09:16:46.852Z,12.37
2019-03-21T09:19:17.868Z,11.47
2019-03-21T09:21:48.868Z,16.00
2019-03-21T09:24:19.738Z,19.03
2019-03-21T09:26:51.618Z,11.47
2019-03-21T09:29:22.638Z,16.73
2019-03-21T09:31:53.883Z,15.23
2019-03-21T09:34:24.757Z,13.10
2019-03-21T09:36:55.795Z,16.27
2019-03-21T09:39:26.683Z,13.63
2019-03-21T09:41:57.746Z,12.53
2019-03-21T09:44:29.232Z,10.87
2019-03-21T09:47:00.162Z,10.70
2019-03-21T09:49:31.083Z,12.70
2019-03-21T09:52:01.975Z,15.33
2019-03-21T09:54:32.794Z,11.00
2019-03-21T09:57:03.918Z,12.37
2019-03-21T09:59:34.717Z,9.83
2019-03-21T10:02:05.547Z,10.10
2019-03-21T10:04:36.478Z,10.53
2019-03-21T10:07:07.294Z,13.43
2019-03-21T10:09:38.247Z,10.27
2019-03-21T10:12:09.440Z,10.27
2019-03-21T10:14:41.421Z,12.67
2019-03-21T10:17:12.323Z,10.20
2019-03-21T10:19:43.215Z,9.83
2019-03-21T10:22:14.379Z,11.03
2019-03-21T10:24:45.480Z,7.37
2019-03-21T10:27:16.576Z,7.93
2019-03-21T10:29:47.561Z,9.20
2019-03-21T10:32:18.382Z,5.37
2019-03-21T10:34:49.156Z,12.70
2019-03-21T10:37:20.001Z,7.27
2019-03-21T10:39:50.883Z,9.43
2019-03-21T10:42:21.865Z,9.10
2019-03-21T10:44:52.877Z,16.33
2019-03-21T10:47:23.713Z,8.63
2019-03-21T10:49:54.498Z,7.37
2019-03-21T10:52:25.337Z,7.00
2019-03-21T10:54:56.095Z,8.33
2019-03-21T10:57:26.851Z,7.30
2019-03-21T10:59:57.719Z,10.40
2019-03-21T11:02:28.526Z,9.73
2019-03-21T11:04:59.297Z,9.97
2019-03-21T11:07:30.119Z,10.70
2019-03-21T11:10:01.225Z,11.83
2019-03-21T11:12:32.498Z,11.97
2019-03-21T11:15:03.319Z,16.33
2019-03-21T11:17:34.407Z,84.50
2019-03-21T11:20:05.487Z,39.50
2019-03-21T11:22:36.311Z,19.17
2019-03-21T11:25:07.238Z,14.73
2019-03-21T11:27:38.250Z,12.50
2019-03-21T11:30:15.972Z,14.23
2019-03-21T11:32:41.963Z,33.30
2019-03-21T11:35:12.791Z,44.07
2019-03-21T11:37:43.813Z,40.70
2019-03-21T11:40:14.647Z,21.27
2019-03-21T11:42:45.504Z,17.47
2019-03-21T11:45:16.546Z,28.50
2019-03-21T11:47:47.374Z,15.67
2019-03-21T11:50:18.432Z,14.07
2019-03-21T11:52:49.374Z,10.83
2019-03-21T11:55:20.376Z,12.63
2019-03-21T11:57:51.370Z,17.03
2019-03-21T12:00:22.142Z,12.80
2019-03-21T12:02:53.017Z,14.53
2019-03-21T12:05:24.059Z,12.33
2019-03-21T12:07:54.867Z,12.87
2019-03-21T12:10:25.946Z,11.13
2019-03-21T12:12:56.890Z,7.23
2019-03-21T12:15:27.799Z,9.20
2019-03-21T12:17:58.668Z,12.53
2019-03-21T12:20:36.117Z,12.10
2019-03-21T12:23:07.091Z,10.37
2019-03-21T12:25:37.955Z,10.83
2019-03-21T12:28:09.029Z,14.87
2019-03-21T12:30:43.467Z,8.77
2019-03-21T12:33:14.644Z,6.77
2019-03-21T12:35:45.505Z,8.33
2019-03-21T12:38:16.322Z,12.97
2019-03-21T12:40:47.111Z,11.17
2019-03-21T12:43:17.846Z,9.07
2019-03-21T12:45:48.719Z,10.00
2019-03-21T12:48:19.738Z,10.17
2019-03-21T12:50:50.685Z,11.50
2019-03-21T12:53:21.566Z,11.13
2019-03-21T12:55:52.439Z,9.00
2019-03-21T12:58:23.232Z,8.70
2019-03-21T13:00:54.161Z,8.23
2019-03-21T13:03:24.993Z,8.30
2019-03-21T13:05:55.896Z,6.57
2019-03-21T13:08:33.628Z,7.13
2019-03-21T13:11:00.890Z,6.93
2019-03-21T13:13:32.037Z,6.73
2019-03-21T13:16:02.866Z,7.37
2019-03-21T13:18:33.634Z,6.63
2019-03-21T13:21:04.415Z,8.10
2019-03-21T13:23:35.239Z,12.57
2019-03-21T13:26:06.183Z,11.97
2019-03-21T13:28:37.111Z,7.87
2019-03-21T13:31:07.972Z,7.47
2019-03-21T13:33:38.902Z,11.80
2019-03-21T13:36:09.963Z,64.00
2019-03-21T13:38:40.779Z,77.10
2019-03-21T13:41:12.751Z,39.40
2019-03-21T13:43:43.673Z,31.07
2019-03-21T13:46:14.484Z,65.17
2019-03-21T13:48:45.398Z,135.00
2019-03-21T13:51:16.435Z,39.50
2019-03-21T13:53:47.357Z,21.63
2019-03-21T13:56:18.414Z,32.87
2019-03-21T13:58:50.758Z,25.60
2019-03-21T14:01:21.702Z,24.03
2019-03-21T14:03:52.618Z,16.63
2019-03-21T14:06:23.601Z,14.00
2019-03-21T14:08:54.430Z,10.87
2019-03-21T14:11:25.376Z,14.63
2019-03-21T14:13:56.323Z,13.90
2019-03-21T14:16:27.415Z,14.53
2019-03-21T14:18:58.190Z,10.20
2019-03-21T14:21:29.139Z,11.60
2019-03-21T14:23:59.921Z,11.50
2019-03-21T14:26:30.882Z,9.57
2019-03-21T14:29:12.236Z,7.37
2019-03-21T14:31:34.225Z,8.10
2019-03-21T14:34:05.123Z,6.83
2019-03-21T14:36:36.257Z,6.63
2019-03-21T14:39:08.043Z,6.90
2019-03-21T14:41:38.937Z,7.03
2019-03-21T14:44:12.877Z,10.07
2019-03-21T14:46:43.741Z,5.60
2019-03-21T14:49:14.594Z,6.17
2019-03-21T14:51:45.637Z,4.70
2019-03-21T14:54:16.595Z,7.50
2019-03-21T14:56:47.654Z,5.07
2019-03-21T14:59:18.286Z,14.87
2019-03-21T15:01:49.346Z,17.00
2019-03-21T15:04:20.151Z,6.00
2019-03-21T15:06:51.110Z,7.20
2019-03-21T15:09:21.912Z,6.40
2019-03-21T15:11:52.935Z,7.50
2019-03-21T15:14:23.747Z,5.43
2019-03-21T15:16:54.596Z,3.57
2019-03-21T15:19:25.346Z,7.23
2019-03-21T15:21:56.194Z,9.87
2019-03-21T15:24:27.054Z,5.30
2019-03-21T15:26:57.794Z,8.93
2019-03-21T15:29:28.592Z,6.73
2019-03-21T15:31:59.390Z,4.63
2019-03-21T15:34:30.151Z,8.23
2019-03-21T15:37:00.884Z,4.80
2019-03-21T15:39:31.632Z,6.03
2019-03-21T15:42:02.378Z,4.97
2019-03-21T15:44:33.162Z,7.50
2019-03-21T15:47:04.009Z,4.90
2019-03-21T15:49:35.662Z,6.90
2019-03-21T15:52:06.418Z,5.57
2019-03-21T15:54:37.208Z,7.20
2019-03-21T15:57:08.154Z,8.43
2019-03-21T15:59:39.280Z,9.03
2019-03-21T16:02:11.358Z,9.88
2019-03-21T16:04:42.290Z,5.87
2019-03-21T16:07:13.239Z,7.43
2019-03-21T16:09:44.162Z,9.30
2019-03-21T16:12:15.019Z,5.70
2019-03-21T16:14:46.041Z,12.20
2019-03-21T16:17:17.019Z,24.77
2019-03-21T16:19:48.033Z,64.83
2019-03-21T16:22:18.946Z,64.70
2019-03-21T16:24:50.044Z,63.20
2019-03-21T16:27:20.933Z,74.70
2019-03-21T16:29:51.832Z,70.70
2019-03-21T16:32:22.836Z,62.73
2019-03-21T16:34:53.629Z,40.20
2019-03-21T16:37:24.666Z,19.93
2019-03-21T16:39:55.857Z,42.47
2019-03-21T16:42:26.775Z,38.50
2019-03-21T16:44:57.727Z,31.40
2019-03-21T16:47:28.654Z,27.67
2019-03-21T16:49:59.952Z,18.47
2019-03-21T16:52:30.796Z,6.57
2019-03-21T16:55:02.608Z,7.40
2019-03-21T16:57:33.926Z,9.60
2019-03-21T17:00:09.722Z,7.80
2019-03-21T17:02:40.719Z,6.30
2019-03-21T17:05:12.120Z,5.30
2019-03-21T17:07:43.156Z,7.23
2019-03-21T17:10:14.367Z,4.53
2019-03-21T17:12:45.647Z,9.43
2019-03-21T17:15:16.524Z,4.87
2019-03-21T17:17:47.293Z,5.53
2019-03-21T17:20:18.134Z,4.40
2019-03-21T17:22:48.963Z,10.23
2019-03-21T17:25:19.865Z,9.10
2019-03-21T17:27:50.627Z,8.27
2019-03-21T17:30:21.411Z,6.10
2019-03-21T17:32:52.172Z,5.00
2019-03-21T17:35:23.019Z,9.10
2019-03-21T17:37:53.871Z,6.73
2019-03-21T17:40:24.772Z,8.80
2019-03-21T17:42:55.647Z,6.57
2019-03-21T17:45:26.567Z,8.00
2019-03-21T17:47:57.598Z,9.60
2019-03-21T17:50:28.418Z,6.80
2019-03-21T17:52:59.294Z,8.60
2019-03-21T17:55:30.249Z,7.67
2019-03-21T17:58:00.242Z,8.65
2019-03-21T18:00:30.518Z,5.37
2019-03-21T18:03:00.584Z,8.83
2019-03-21T18:05:30.472Z,11.87
2019-03-21T18:08:00.294Z,15.97
2019-03-21T18:10:30.666Z,9.53
2019-03-21T18:13:00.630Z,8.70
2019-03-21T18:15:30.665Z,11.87
2019-03-21T18:18:00.781Z,10.77
2019-03-21T18:20:30.721Z,7.90
2019-03-21T18:23:00.637Z,8.13
2019-03-21T18:25:30.572Z,9.80
2019-03-21T18:28:00.353Z,10.27
2019-03-21T18:30:31.447Z,8.17
2019-03-21T18:33:01.305Z,9.77
2019-03-21T18:35:31.271Z,9.33
2019-03-21T18:38:02.362Z,9.03
2019-03-21T18:40:33.330Z,8.30
2019-03-21T18:43:04.356Z,6.27
2019-03-21T18:45:35.471Z,9.13
2019-03-21T18:48:06.357Z,6.70
2019-03-21T18:50:37.229Z,11.20
2019-03-21T18:53:08.121Z,9.13
2019-03-21T18:55:38.990Z,9.00
2019-03-21T18:58:09.827Z,9.90
2019-03-21T19:00:42.962Z,8.80
2019-03-21T19:03:13.838Z,7.33
2019-03-21T19:05:44.771Z,10.00
2019-03-21T19:08:15.599Z,10.37
2019-03-21T19:10:46.620Z,12.50
2019-03-21T19:13:17.905Z,6.63
2019-03-21T19:15:48.695Z,8.60
2019-03-21T19:18:19.694Z,11.53
2019-03-21T19:20:50.663Z,8.10
2019-03-21T19:23:21.780Z,8.13
2019-03-21T19:25:52.881Z,9.37
2019-03-21T19:28:23.734Z,10.00
2019-03-21T19:30:54.689Z,9.07
2019-03-21T19:33:25.529Z,9.03
2019-03-21T19:35:56.406Z,9.23
2019-03-21T19:38:27.495Z,8.60
2019-03-21T19:40:58.499Z,9.47
2019-03-21T19:43:29.369Z,9.87
2019-03-21T19:46:00.357Z,10.17
2019-03-21T19:48:31.327Z,9.63
2019-03-21T19:51:02.354Z,12.87
2019-03-21T19:53:33.333Z,11.40
2019-03-21T19:56:08.766Z,12.33
2019-03-21T19:58:37.671Z,12.07
2019-03-21T20:01:08.620Z,11.17
2019-03-21T20:03:39.556Z,10.17
2019-03-21T20:06:10.377Z,13.80
2019-03-21T20:08:41.188Z,11.40
2019-03-21T20:11:12.260Z,11.33
2019-03-21T20:13:43.095Z,11.90
2019-03-21T20:16:13.955Z,11.17
2019-03-21T20:18:44.847Z,14.03
2019-03-21T20:21:15.903Z,15.63
2019-03-21T20:23:46.771Z,12.00
2019-03-21T20:26:17.719Z,13.30
2019-03-21T20:28:48.634Z,9.83
2019-03-21T20:31:19.683Z,11.97
2019-03-21T20:33:50.555Z,12.93
2019-03-21T20:36:21.887Z,11.93
2019-03-21T20:38:52.766Z,11.07
2019-03-21T20:41:23.576Z,15.73
2019-03-21T20:43:54.427Z,13.57
2019-03-21T20:46:25.311Z,11.37
2019-03-21T20:48:54.398Z,25.37
2019-03-21T20:51:25.194Z,9.87
2019-03-21T20:53:56.158Z,13.53
2019-03-21T20:56:27.257Z,11.47
2019-03-21T20:58:58.099Z,11.67
2019-03-21T21:01:28.956Z,16.03
2019-03-21T21:03:59.765Z,14.87
2019-03-21T21:06:31.863Z,13.47
2019-03-21T21:09:03.238Z,13.30
2019-03-21T21:11:35.175Z,15.37
2019-03-21T21:14:06.248Z,9.40
2019-03-21T21:16:37.086Z,9.33
2019-03-21T21:19:07.887Z,9.90
2019-03-21T21:21:38.799Z,10.77
2019-03-21T21:24:09.615Z,12.60
2019-03-21T21:26:40.585Z,11.60
2019-03-21T21:29:11.391Z,10.53
2019-03-21T21:31:42.288Z,14.53
2019-03-21T21:34:13.267Z,13.10
2019-03-21T21:36:44.215Z,10.57
2019-03-21T21:39:16.194Z,14.00
2019-03-21T21:41:47.123Z,10.30
2019-03-21T21:44:17.907Z,12.63
2019-03-21T21:46:48.771Z,11.93
2019-03-21T21:49:19.753Z,9.90
2019-03-21T21:51:50.900Z,8.63
2019-03-21T21:54:21.955Z,9.70
2019-03-21T21:56:52.932Z,11.20
2019-03-21T21:59:23.829Z,8.10
2019-03-21T22:01:54.632Z,12.23
2019-03-21T22:04:25.438Z,10.03
2019-03-21T22:06:56.288Z,11.40
2019-03-21T22:09:27.187Z,13.63
2019-03-21T22:11:58.095Z,10.83
2019-03-21T22:14:28.947Z,14.40
2019-03-21T22:17:00.009Z,14.97
2019-03-21T22:19:30.794Z,11.50
2019-03-21T22:22:01.614Z,10.63
2019-03-21T22:24:32.470Z,10.33
2019-03-21T22:27:03.290Z,13.53
2019-03-21T22:29:34.655Z,11.13
2019-03-21T22:32:05.462Z,12.57
2019-03-21T22:34:36.525Z,11.80
2019-03-21T22:37:09.576Z,9.57
2019-03-21T22:39:40.396Z,11.80
2019-03-21T22:42:11.164Z,14.93
2019-03-21T22:44:42.470Z,11.03
2019-03-21T22:47:13.384Z,11.97
2019-03-21T22:49:44.541Z,13.53
2019-03-21T22:52:15.321Z,13.20
2019-03-21T22:54:46.188Z,10.20
2019-03-21T22:57:17.053Z,11.87
2019-03-21T22:59:48.245Z,10.53
2019-03-21T23:02:19.108Z,12.23
2019-03-21T23:04:49.965Z,11.50
2019-03-21T23:07:23.555Z,11.90
2019-03-21T23:09:54.548Z,12.67
2019-03-21T23:12:24.578Z,9.13
2019-03-21T23:14:54.552Z,12.93
2019-03-21T23:17:24.450Z,13.67
2019-03-21T23:19:54.347Z,12.33
2019-03-21T23:22:24.218Z,9.70
2019-03-21T23:24:54.014Z,9.77
2019-03-21T23:27:24.133Z,10.97
2019-03-21T23:29:54.275Z,12.97
2019-03-21T23:32:24.306Z,16.83
2019-03-21T23:34:54.157Z,14.23
2019-03-21T23:37:23.943Z,11.67
2019-03-21T23:39:53.782Z,14.70
2019-03-21T23:42:23.714Z,11.10
2019-03-21T23:44:53.542Z,14.40
2019-03-21T23:47:23.516Z,14.33
2019-03-21T23:49:53.379Z,13.47
2019-03-21T23:52:23.544Z,13.63
2019-03-21T23:54:53.521Z,11.77
2019-03-21T23:57:23.402Z,12.70
2019-03-21T23:59:53.220Z,17.43
